Hub


Voltar

 INFORMAÇÕES METEOROLÓGICAS

METAR FOR KIND


ADDS - METARS form results

(2229 UTC 24 March 2019)
Data provider http://aviationweather.gov/metar/data/
 
METAR text: KIND 242219Z 13009KT 2 1/2SM -RA BR OVC010 08/07 A3004 RMK AO2 P0001 T00780067
Conditions at: KIND (INDIANAPOLIS , IN, US) observed 2219 UTC 24 March 2019
Temperature: 7.8°C (46°F)
Dewpoint: 6.7°C (44°F) [RH = 93%]
Pressure (altimeter): 30.04 inches Hg (1017.4 mb)
Winds: from the SE (130 degrees) at 10 MPH (9 knots; 4.6 m/s)
Visibility: 2.50 miles (4.02 km)
Ceiling: 1000 feet AGL
Clouds: overcast cloud deck at 1000 feet AGL
Weather: -RA BR  (light rain, mist)

METAR text: KIND 242203Z 12007KT 3SM -RA BR OVC014 08/06 A3005 RMK AO2 P0000 T00780061
Conditions at: KIND (INDIANAPOLIS , IN, US) observed 2203 UTC 24 March 2019
Temperature: 7.8°C (46°F)
Dewpoint: 6.1°C (43°F) [RH = 89%]
Pressure (altimeter): 30.05 inches Hg (1017.7 mb)
Winds: from the ESE (120 degrees) at 8 MPH (7 knots; 3.6 m/s)
Visibility: 3 miles ( 5 km)
Ceiling: 1400 feet AGL
Clouds: overcast cloud deck at 1400 feet AGL
Weather: -RA BR  (light rain, mist)

METAR text: KIND 242154Z 14007KT 5SM -RA BR OVC015 08/06 A3004 RMK AO2 RAB45 SLP176 P0000 T00830061
Conditions at: KIND (INDIANAPOLIS , IN, US) observed 2154 UTC 24 March 2019
Temperature: 8.3°C (47°F)
Dewpoint: 6.1°C (43°F) [RH = 86%]
Pressure (altimeter): 30.04 inches Hg (1017.4 mb)
[Sea-level pressure: 1017.6 mb]
Winds: from the SE (140 degrees) at 8 MPH (7 knots; 3.6 m/s)
Visibility: 5 miles ( 8 km)
Ceiling: 1500 feet AGL
Clouds: overcast cloud deck at 1500 feet AGL
Weather: -RA BR  (light rain, mist)

Forecast for: KIND (INDIANAPOLIS , IN, US)
Text: KIND 242013Z 2420/2524 20007KT 6SM -SHRA BR OVC030
Forecast period: 2000 UTC 24 March 2019 to 0000 UTC 25 March 2019
Forecast type: FROM: standard forecast or significant change
Winds: from the SSW (200 degrees) at 8 MPH (7 knots; 3.6 m/s)
Visibility: 6 miles (10 km)
Ceiling: 3000 feet AGL
Clouds: overcast cloud deck at 3000 feet AGL
Weather: -SHRA BR  (light rain showers, mist)
Text: FM250000 VRB04KT P6SM VCSH OVC025
Forecast period: 0000 to 1200 UTC 25 March 2019
Forecast type: FROM: standard forecast or significant change
Winds: variable direction winds at 5 MPH (4 knots; 2.1 m/s)
Visibility: 6 or more miles 10+ km)
Ceiling: 2500 feet AGL
Clouds: overcast cloud deck at 2500 feet AGL
Weather: VCSH  (showers in vicinity)
Text: FM251200 04009KT P6SM OVC010
Forecast period: 1200 to 1600 UTC 25 March 2019
Forecast type: FROM: standard forecast or significant change
Winds: from the NE (40 degrees) at 10 MPH (9 knots; 4.6 m/s)
Visibility: 6 or more miles 10+ km)
Ceiling: 1000 feet AGL
Clouds: overcast cloud deck at 1000 feet AGL
Weather: no significant weather forecast for this period
Text: FM251600 04011G21KT P6SM BKN035
Forecast period: 1600 UTC 25 March 2019 to 0000 UTC 26 March 2019
Forecast type: FROM: standard forecast or significant change
Winds: from the NE (40 degrees) at 13 MPH (11 knots; 5.7 m/s)
gusting to 24 MPH (21 knots; 10.8 m/s)
Visibility: 6 or more miles 10+ km)
Ceiling: 3500 feet AGL
Clouds: broken clouds at 3500 feet AGL
Weather: no significant weather forecast for this period


 MAPA DO AEROPORTO


 INFORMAÇÕES DA PISTA

Pista 05L Tamanho da pista 11200 ft Largura da pista 150 ft
Elevação da pista 738 ft Ranhura da pista 0 ft Proa da pista 45
Pista 23R Tamanho da pista 11200 ft Largura da pista 150 ft
Elevação da pista 783 ft Ranhura da pista 0 ft Proa da pista 225
Pista 05R Tamanho da pista 10000 ft Largura da pista 150 ft
Elevação da pista 789 ft Ranhura da pista 0 ft Proa da pista 45
Pista 23L Tamanho da pista 10000 ft Largura da pista 150 ft
Elevação da pista 788 ft Ranhura da pista 0 ft Proa da pista 225
Pista 14 Tamanho da pista 7605 ft Largura da pista 150 ft
Elevação da pista 788 ft Ranhura da pista 0 ft Proa da pista 135
Pista 32 Tamanho da pista 7605 ft Largura da pista 150 ft
Elevação da pista 781 ft Ranhura da pista 0 ft Proa da pista 315

 FREQUÊNCIAS DO AEROPORTO

Tipo APP Nome APP Frequência 119.3 MHZ
Tipo ATIS Nome ATIS Frequência 134.25 MHZ
Tipo CLD Nome CLNC DEL Frequência 128.75 MHZ
Tipo DEP Nome DEP Frequência 119.05 MHZ
Tipo GND Nome GND Frequência 121.8 MHZ
Tipo RDO Nome TERRE HAUT Frequência 122.55 MHZ
Tipo TWR Nome INDY TWR Frequência 120.9 MHZ
Tipo UNIC Nome UNICOM Frequência 122.95 MHZ

 AUXÍLIOS DE NAVEGAÇÃO PRÓXIMOS AO AEROPORTO

Tipo NDB Nome Colfa Frequência 232 KHZ